Time;durP1;ratioP1;P1;durP2;ratioP2;P2;SDS_P1;SDS_P2;PMS_P1;PMS_P2;Temp;Humidity;BMP_temperature;BMP_pressure;BME280_temperature;BME280_humidity;BME280_pressure;Samples;Min_cycle;Max_cycle;Signal;HPM_P1;HPM_P2
2024/02/01 00:01:32;;;;;;;5.78;2.63;;;23.00;39.90;;;;;;5051678;28;20298;-50
2024/02/01 00:03:59;;;;;;;6.53;2.38;;;23.00;39.80;;;;;;5052083;28;20267;-51
2024/02/01 00:06:27;;;;;;;6.55;2.58;;;23.00;39.80;;;;;;5055572;28;20192;-48
2024/02/01 00:08:54;;;;;;;7.22;2.78;;;23.10;39.90;;;;;;5055435;28;20191;-48
2024/02/01 00:11:21;;;;;;;7.80;2.72;;;23.10;39.90;;;;;;5055204;28;20202;-49
2024/02/01 00:13:48;;;;;;;9.02;2.83;;;23.10;39.90;;;;;;5055407;28;20269;-52
2024/02/01 00:16:21;;;;;;;8.35;3.10;;;23.10;39.90;;;;;;5055068;28;20283;-48
2024/02/01 00:18:48;;;;;;;6.85;2.65;;;23.10;39.80;;;;;;5054834;28;20191;-50
2024/02/01 00:21:16;;;;;;;8.38;2.63;;;23.20;39.80;;;;;;5055253;28;20191;-49
2024/02/01 00:23:44;;;;;;;6.40;2.78;;;23.20;39.70;;;;;;5055289;28;20195;-50
2024/02/01 00:26:11;;;;;;;5.95;2.70;;;23.20;39.70;;;;;;5054878;28;20275;-51
2024/02/01 00:28:38;;;;;;;6.07;2.58;;;23.20;39.70;;;;;;5055161;28;20192;-48
2024/02/01 00:31:05;;;;;;;8.43;2.10;;;23.20;39.70;;;;;;5055089;28;20211;-53
2024/02/01 00:33:32;;;;;;;7.43;2.97;;;23.10;39.70;;;;;;5054688;28;20275;-47
2024/02/01 00:35:59;;;;;;;8.15;2.55;;;23.10;39.70;;;;;;5054967;28;20246;-48
2024/02/01 00:38:26;;;;;;;11.13;2.72;;;23.10;39.80;;;;;;5054930;28;20267;-51
2024/02/01 00:40:54;;;;;;;5.80;2.50;;;23.10;39.80;;;;;;5054467;28;20697;-49
2024/02/01 00:43:21;;;;;;;7.65;2.40;;;23.10;39.90;;;;;;5054772;28;20219;-48
2024/02/01 00:45:48;;;;;;;4.85;2.15;;;23.10;40.00;;;;;;5054588;28;20249;-49
2024/02/01 00:48:16;;;;;;;8.02;2.80;;;23.00;39.90;;;;;;5054044;28;20284;-48
2024/02/01 00:50:43;;;;;;;8.48;2.72;;;23.00;40.00;;;;;;5054415;28;20732;-47
2024/02/01 00:53:10;;;;;;;6.35;2.35;;;23.00;40.10;;;;;;5054642;28;20196;-48
2024/02/01 00:55:36;;;;;;;7.05;2.42;;;23.00;40.10;;;;;;5054148;28;20215;-49
2024/02/01 00:58:05;;;;;;;6.10;2.42;;;22.90;40.10;;;;;;5054510;28;20198;-47
2024/02/01 01:00:32;;;;;;;7.28;2.55;;;22.90;40.20;;;;;;5054249;28;20302;-48
2024/02/01 01:02:59;;;;;;;10.77;2.88;;;22.90;40.20;;;;;;5054134;28;20219;-48
2024/02/01 01:05:26;;;;;;;7.32;2.40;;;22.90;40.20;;;;;;5054468;28;20215;-48
2024/02/01 01:07:53;;;;;;;6.95;2.53;;;22.90;40.20;;;;;;5054090;28;20643;-49
2024/02/01 01:10:20;;;;;;;7.55;2.38;;;22.90;40.30;;;;;;5054029;28;20223;-50
2024/02/01 01:12:47;;;;;;;6.93;2.60;;;22.90;40.30;;;;;;5054342;28;20192;-47
2024/02/01 01:15:16;;;;;;;6.35;2.55;;;23.00;40.30;;;;;;5053758;28;20299;-51
2024/02/01 01:17:43;;;;;;;7.28;2.60;;;23.00;40.20;;;;;;5051667;28;20657;-49
2024/02/01 01:20:11;;;;;;;6.53;2.50;;;23.00;40.20;;;;;;5053598;28;20310;-48
2024/02/01 01:22:38;;;;;;;6.80;2.50;;;23.10;40.30;;;;;;5053975;28;20298;-49
2024/02/01 01:25:05;;;;;;;8.90;2.60;;;23.00;40.20;;;;;;5053833;28;20369;-47
2024/02/01 01:27:32;;;;;;;6.13;2.40;;;23.10;40.30;;;;;;5054036;28;20278;-48
2024/02/01 01:29:59;;;;;;;7.13;2.67;;;23.10;40.30;;;;;;5053944;28;20215;-48
2024/02/01 01:32:27;;;;;;;4.68;2.10;;;23.10;40.90;;;;;;5053302;28;20667;-50
2024/02/01 01:34:54;;;;;;;8.43;2.40;;;23.10;40.10;;;;;;5053953;28;20656;-49
2024/02/01 01:37:21;;;;;;;6.47;1.98;;;23.20;40.20;;;;;;5053829;28;20661;-48
2024/02/01 01:39:48;;;;;;;6.10;2.28;;;23.20;40.20;;;;;;5053465;28;20241;-50
2024/02/01 01:42:15;;;;;;;10.55;2.55;;;23.10;40.00;;;;;;5053369;28;20796;-51
2024/02/01 01:44:42;;;;;;;5.93;2.35;;;23.10;40.00;;;;;;5053740;28;20226;-50
2024/02/01 01:47:09;;;;;;;7.40;2.42;;;23.10;40.10;;;;;;5053029;28;20194;-49
2024/02/01 01:49:37;;;;;;;6.95;1.98;;;23.10;40.20;;;;;;5053158;28;20644;-48
2024/02/01 01:52:05;;;;;;;8.93;2.55;;;23.10;40.20;;;;;;5053908;28;20278;-48
2024/02/01 01:54:35;;;;;;;8.27;2.28;;;23.10;40.30;;;;;;5053089;28;20216;-48
2024/02/01 01:57:03;;;;;;;5.90;1.90;;;23.00;40.20;;;;;;5053452;28;20188;-47
2024/02/01 01:59:30;;;;;;;5.85;1.98;;;23.00;40.30;;;;;;5053398;28;20220;-48
2024/02/01 02:01:59;;;;;;;5.75;2.10;;;23.00;40.30;;;;;;5052977;28;20222;-49
2024/02/01 02:04:26;;;;;;;7.82;2.03;;;23.00;40.40;;;;;;5053366;28;20223;-49
2024/02/01 02:06:56;;;;;;;7.85;2.03;;;23.00;40.50;;;;;;5052948;28;20756;-49
2024/02/01 02:09:23;;;;;;;6.95;2.00;;;22.90;40.50;;;;;;5052862;28;20220;-51
2024/02/01 02:11:50;;;;;;;9.45;2.33;;;22.90;40.50;;;;;;5052897;28;20749;-48
2024/02/01 02:14:17;;;;;;;5.85;2.20;;;22.90;40.50;;;;;;5052812;28;20306;-50
2024/02/01 02:16:44;;;;;;;6.40;2.00;;;22.90;40.60;;;;;;5052390;28;20234;-47
2024/02/01 02:19:11;;;;;;;6.15;1.90;;;22.90;40.60;;;;;;5052977;28;20283;-49
2024/02/01 02:21:46;;;;;;;8.00;1.90;;;22.90;40.60;;;;;;5052751;28;20198;-48
2024/02/01 02:24:14;;;;;;;5.63;1.95;;;22.90;40.70;;;;;;5052366;28;20716;-51
2024/02/01 02:26:40;;;;;;;5.00;1.77;;;22.90;40.60;;;;;;5052089;28;20673;-47
2024/02/01 02:29:07;;;;;;;5.38;1.90;;;22.90;40.60;;;;;;5052787;28;20188;-48
2024/02/01 02:31:35;;;;;;;6.38;1.98;;;22.90;40.50;;;;;;5052489;28;20321;-47
2024/02/01 02:34:02;;;;;;;5.90;1.80;;;22.90;40.50;;;;;;5052467;28;20195;-49
2024/02/01 02:36:29;;;;;;;5.90;1.83;;;23.00;40.60;;;;;;5052448;28;20223;-47
2024/02/01 02:38:57;;;;;;;5.30;2.00;;;23.00;40.60;;;;;;5051935;28;20188;-48
2024/02/01 02:41:24;;;;;;;4.63;1.90;;;23.10;40.70;;;;;;5052685;28;20188;-48
2024/02/01 02:43:51;;;;;;;4.57;1.92;;;23.10;40.60;;;;;;5052500;28;20226;-48
2024/02/01 02:46:18;;;;;;;4.50;1.52;;;23.10;40.60;;;;;;5052155;28;20302;-48
2024/02/01 02:48:45;;;;;;;5.07;1.55;;;23.10;40.60;;;;;;5052319;28;20267;-50
2024/02/01 02:51:12;;;;;;;6.28;1.67;;;23.10;40.50;;;;;;5052671;28;20223;-49
2024/02/01 02:53:39;;;;;;;5.00;1.80;;;23.10;40.40;;;;;;5052005;28;20196;-49
2024/02/01 02:56:08;;;;;;;6.20;1.85;;;23.10;40.40;;;;;;5052679;28;20211;-48
2024/02/01 02:58:36;;;;;;;5.53;1.50;;;23.10;40.40;;;;;;5052403;28;20219;-49
2024/02/01 03:01:06;;;;;;;5.18;1.50;;;23.10;40.50;;;;;;5052006;28;20592;-50
2024/02/01 03:03:33;;;;;;;5.80;1.70;;;23.10;40.50;;;;;;5052356;28;20219;-50
2024/02/01 03:06:00;;;;;;;4.82;1.58;;;23.10;40.50;;;;;;5052064;28;20302;-50
2024/02/01 03:08:27;;;;;;;4.13;1.67;;;23.10;40.60;;;;;;5051996;28;20200;-50
2024/02/01 03:10:54;;;;;;;5.60;1.90;;;23.00;40.50;;;;;;5052472;28;20219;-47
2024/02/01 03:13:22;;;;;;;5.80;1.98;;;23.00;40.70;;;;;;5052351;28;20226;-50
2024/02/01 03:15:49;;;;;;;4.35;1.42;;;23.00;40.70;;;;;;5051559;28;20776;-49
2024/02/01 03:18:16;;;;;;;4.43;1.52;;;22.90;40.60;;;;;;5052189;28;20266;-50
2024/02/01 03:20:44;;;;;;;5.40;1.80;;;22.90;40.70;;;;;;5052063;28;20215;-46
2024/02/01 03:23:11;;;;;;;2.53;1.35;;;22.90;40.80;;;;;;5051576;28;20211;-50
2024/02/01 03:25:39;;;;;;;3.53;1.48;;;22.90;40.80;;;;;;5052008;28;20247;-48
2024/02/01 03:28:06;;;;;;;3.75;1.50;;;22.90;40.90;;;;;;5052164;28;20188;-49
2024/02/01 03:30:46;;;;;;;3.10;1.48;;;22.90;40.90;;;;;;5051465;28;20705;-51
2024/02/01 03:33:13;;;;;;;3.67;1.52;;;22.90;40.90;;;;;;5052084;28;20202;-47
2024/02/01 03:35:41;;;;;;;3.95;1.55;;;22.80;40.90;;;;;;5052203;28;20219;-48
2024/02/01 03:38:14;;;;;;;4.10;1.40;;;22.90;41.00;;;;;;5051697;28;20199;-48
2024/02/01 03:40:41;;;;;;;3.35;1.50;;;22.90;41.00;;;;;;5055773;28;20249;-49
2024/02/01 03:43:11;;;;;;;3.25;1.30;;;22.90;41.00;;;;;;5055894;28;20298;-50
2024/02/01 03:45:48;;;;;;;2.45;1.52;;;22.90;40.90;;;;;;5055659;28;20216;-49
2024/02/01 03:48:17;;;;;;;3.65;1.23;;;22.90;40.90;;;;;;5055882;28;20195;-47
2024/02/01 03:50:44;;;;;;;4.43;1.60;;;23.00;41.00;;;;;;5055633;28;20235;-47
2024/02/01 03:53:12;;;;;;;3.75;1.20;;;23.00;41.00;;;;;;5055360;28;20700;-49
2024/02/01 03:55:40;;;;;;;3.78;1.10;;;23.00;41.00;;;;;;5055662;28;20734;-51
2024/02/01 03:58:08;;;;;;;2.63;1.27;;;23.00;40.90;;;;;;5055439;28;20670;-49
2024/02/01 04:00:35;;;;;;;3.03;1.15;;;23.10;41.60;;;;;;5055014;28;20771;-51
2024/02/01 04:03:05;;;;;;;2.35;1.10;;;23.10;41.00;;;;;;5055613;28;20223;-49
2024/02/01 04:05:36;;;;;;;4.45;1.25;;;23.10;40.80;;;;;;5055603;28;20635;-48
2024/02/01 04:08:06;;;;;;;4.45;1.48;;;23.10;40.80;;;;;;5055123;28;20199;-48
2024/02/01 04:10:34;;;;;;;2.08;1.10;;;23.10;40.80;;;;;;5055665;28;20306;-48
2024/02/01 04:13:02;;;;;;;2.42;1.20;;;23.10;40.80;;;;;;5055239;28;20184;-49
2024/02/01 04:15:29;;;;;;;3.67;1.10;;;23.10;40.80;;;;;;5055054;28;20211;-53
2024/02/01 04:17:56;;;;;;;2.33;1.10;;;23.10;40.90;;;;;;5055362;28;20271;-48
2024/02/01 04:20:24;;;;;;;2.15;0.80;;;23.10;41.00;;;;;;5055458;28;20254;-50
2024/02/01 04:22:53;;;;;;;2.20;0.93;;;23.00;40.90;;;;;;5054527;28;20765;-48
2024/02/01 04:25:21;;;;;;;5.40;1.05;;;23.00;41.00;;;;;;5055139;28;20212;-51
2024/02/01 04:27:49;;;;;;;1.38;0.82;;;23.00;41.00;;;;;;5055253;28;20188;-48
2024/02/01 04:30:17;;;;;;;3.38;1.20;;;22.90;41.00;;;;;;5054410;28;20219;-50
2024/02/01 04:32:45;;;;;;;2.47;0.90;;;22.90;41.00;;;;;;5055077;28;20192;-50
2024/02/01 04:35:12;;;;;;;3.00;0.95;;;22.90;41.10;;;;;;5055143;28;20222;-50
2024/02/01 04:37:41;;;;;;;2.75;0.90;;;22.90;41.10;;;;;;5054552;28;20215;-49
2024/02/01 04:40:09;;;;;;;4.25;1.02;;;22.90;41.30;;;;;;5055058;28;20306;-53
2024/02/01 04:42:36;;;;;;;2.25;0.80;;;22.90;41.30;;;;;;5054860;28;20220;-47
2024/02/01 04:45:05;;;;;;;1.60;0.70;;;22.80;41.30;;;;;;5054683;28;20225;-49
2024/02/01 04:47:32;;;;;;;3.13;1.10;;;22.80;41.20;;;;;;5054820;28;20271;-48
2024/02/01 04:49:59;;;;;;;1.52;0.77;;;22.80;41.30;;;;;;5054033;28;20235;-49
2024/02/01 04:52:26;;;;;;;1.33;0.82;;;22.90;41.40;;;;;;5054669;28;20751;-50
2024/02/01 04:54:55;;;;;;;1.90;0.82;;;22.90;41.30;;;;;;5054657;28;20311;-51
2024/02/01 04:57:21;;;;;;;1.58;0.75;;;22.90;41.30;;;;;;5054659;28;20282;-48
2024/02/01 04:59:48;;;;;;;2.15;0.75;;;22.90;41.30;;;;;;5053906;28;20227;-47
2024/02/01 05:02:16;;;;;;;3.22;0.90;;;22.90;41.30;;;;;;5054585;28;20223;-47
2024/02/01 05:04:43;;;;;;;1.83;0.70;;;22.90;41.30;;;;;;5054385;28;20236;-47
2024/02/01 05:07:11;;;;;;;2.15;0.93;;;23.00;42.10;;;;;;5054023;28;20188;-51
2024/02/01 05:09:39;;;;;;;1.15;0.50;;;23.00;41.30;;;;;;5054427;28;20227;-48
2024/02/01 05:12:08;;;;;;;3.13;1.13;;;23.00;41.30;;;;;;5054522;28;20290;-47
2024/02/01 05:14:36;;;;;;;2.67;0.80;;;23.10;41.30;;;;;;5053948;28;20230;-48
2024/02/01 05:17:03;;;;;;;1.40;0.70;;;23.10;41.30;;;;;;5054356;28;20275;-49
2024/02/01 05:19:29;;;;;;;1.63;0.75;;;23.10;41.20;;;;;;5054141;28;20302;-48
2024/02/01 05:21:56;;;;;;;1.63;0.70;;;23.10;41.30;;;;;;5053976;28;20279;-49
2024/02/01 05:24:23;;;;;;;2.45;0.90;;;23.10;41.10;;;;;;5054099;28;20233;-47
2024/02/01 05:26:52;;;;;;;0.77;0.47;;;23.10;41.10;;;;;;5054082;28;20198;-52
2024/02/01 05:29:21;;;;;;;1.45;0.70;;;23.00;41.10;;;;;;5053657;28;20198;-49
2024/02/01 05:31:50;;;;;;;1.40;0.60;;;23.00;41.20;;;;;;5054023;28;20695;-48
2024/02/01 05:34:17;;;;;;;1.95;0.75;;;23.00;41.20;;;;;;5053593;28;20278;-50
2024/02/01 05:36:45;;;;;;;1.75;0.60;;;23.00;41.30;;;;;;5053468;28;20274;-49
2024/02/01 05:39:25;;;;;;;0.93;0.50;;;23.00;41.30;;;;;;5054049;28;20389;-48
2024/02/01 05:41:55;;;;;;;1.00;0.63;;;23.00;41.40;;;;;;5053447;28;20653;-48
2024/02/01 05:44:25;;;;;;;1.90;0.75;;;22.90;41.30;;;;;;5053266;28;20282;-50
2024/02/01 05:46:54;;;;;;;1.45;0.50;;;22.90;41.40;;;;;;5053574;28;20665;-51
2024/02/01 05:49:21;;;;;;;0.93;0.40;;;22.90;42.10;;;;;;5053424;28;20232;-48
2024/02/01 05:51:48;;;;;;;1.63;0.50;;;22.90;41.50;;;;;;5053589;28;20290;-51
2024/02/01 05:54:16;;;;;;;1.25;0.70;;;22.80;41.50;;;;;;5053515;28;20617;-48
2024/02/01 05:56:43;;;;;;;0.93;0.40;;;22.90;41.60;;;;;;5053428;28;20187;-49
2024/02/01 05:59:15;;;;;;;1.40;0.70;;;22.80;41.60;;;;;;5053129;28;20278;-50
2024/02/01 06:01:44;;;;;;;1.00;0.50;;;22.80;41.60;;;;;;5052517;28;20251;-48
2024/02/01 06:04:11;;;;;;;0.90;0.52;;;22.80;41.60;;;;;;5053088;28;20215;-48
2024/02/01 06:06:40;;;;;;;1.38;0.70;;;22.90;41.70;;;;;;5052917;28;20191;-49
2024/02/01 06:09:10;;;;;;;1.08;0.50;;;22.90;41.60;;;;;;5052947;28;20195;-49
2024/02/01 06:11:38;;;;;;;0.93;0.63;;;22.90;41.60;;;;;;5052955;28;20664;-52
2024/02/01 06:14:05;;;;;;;2.15;0.75;;;22.90;41.60;;;;;;5052873;28;20188;-48
2024/02/01 06:16:32;;;;;;;1.35;0.60;;;23.00;41.60;;;;;;5053025;28;20299;-52
2024/02/01 06:19:01;;;;;;;1.50;0.60;;;23.00;41.60;;;;;;5053055;28;20283;-48
2024/02/01 06:21:28;;;;;;;0.60;0.50;;;23.00;41.60;;;;;;5052951;28;20298;-48
2024/02/01 06:23:56;;;;;;;0.95;0.50;;;23.00;41.60;;;;;;5052943;28;20219;-50
2024/02/01 06:26:26;;;;;;;0.75;0.60;;;23.10;41.60;;;;;;5053223;28;20306;-50
2024/02/01 06:28:53;;;;;;;0.80;0.57;;;23.10;41.60;;;;;;5052266;28;20616;-48
2024/02/01 06:31:20;;;;;;;1.17;0.55;;;23.10;41.50;;;;;;5052838;28;20310;-48
2024/02/01 06:33:50;;;;;;;0.45;0.45;;;23.10;41.40;;;;;;5052805;28;20183;-47
2024/02/01 06:36:19;;;;;;;0.50;0.30;;;23.10;41.40;;;;;;5052526;28;20298;-49
2024/02/01 06:39:08;;;;;;;0.55;0.40;;;23.10;41.40;;;;;;5052708;28;20199;-51
2024/02/01 06:44:25;;;;;;;1.02;0.70;;;23.10;41.50;;;;;;5047185;28;20216;-48
2024/02/01 06:47:11;;;;;;;0.70;0.40;;;23.00;41.50;;;;;;5052613;28;20191;-49
2024/02/01 06:50:00;;;;;;;0.50;0.35;;;23.00;41.60;;;;;;5052022;28;20263;-52
2024/02/01 06:52:39;;;;;;;0.75;0.50;;;22.90;41.50;;;;;;5052250;28;20607;-48
2024/02/01 06:55:24;;;;;;;1.17;0.52;;;22.90;41.60;;;;;;5052524;28;20591;-48
2024/02/01 06:58:03;;;;;;;0.77;0.50;;;22.90;41.70;;;;;;5052061;28;20195;-50
2024/02/01 07:00:51;;;;;;;0.75;0.60;;;22.90;41.70;;;;;;5052151;28;20697;-48
2024/02/01 07:03:50;;;;;;;0.93;0.50;;;22.90;41.80;;;;;;5052308;28;20282;-55
2024/02/01 07:06:35;;;;;;;1.30;0.63;;;22.90;41.90;;;;;;5052566;28;20223;-55
2024/02/01 07:09:28;;;;;;;0.75;0.50;;;22.80;41.90;;;;;;5050156;28;20650;-55
2024/02/01 07:12:18;;;;;;;0.77;0.60;;;22.70;41.90;;;;;;5044100;28;20207;-54
2024/02/01 07:14:58;;;;;;;0.73;0.52;;;22.70;42.00;;;;;;5047013;28;20634;-55
2024/02/01 07:17:31;;;;;;;0.70;0.45;;;22.70;42.10;;;;;;5058916;28;20339;-51
2024/02/01 07:19:57;;;;;;;1.58;0.52;;;22.70;42.10;;;;;;5071767;28;20227;-53
2024/02/01 07:23:00;;;;;;;1.95;0.43;;;22.70;42.10;;;;;;5058958;28;20214;-54
2024/02/01 07:25:36;;;;;;;3.00;0.70;;;22.70;42.10;;;;;;5051875;28;20288;-53
2024/02/01 07:58:32;;;;;;;2.53;1.15;;;22.80;42.30;;;;;;5050011;28;20218;-56
2024/02/01 08:01:01;;;;;;;2.05;0.93;;;22.80;42.30;;;;;;5047478;28;20636;-53
2024/02/01 08:03:55;;;;;;;5.60;0.95;;;22.70;42.30;;;;;;5031665;28;20638;-50
2024/02/01 08:09:11;;;;;;;3.20;1.10;;;22.70;42.40;;;;;;5042577;28;20215;-50
2024/02/01 08:11:41;;;;;;;3.67;1.30;;;22.80;42.60;;;;;;5045667;28;20322;-50
2024/02/01 08:14:10;;;;;;;3.78;1.23;;;22.80;42.60;;;;;;5045072;28;20207;-55
2024/02/01 08:16:39;;;;;;;3.90;1.35;;;22.80;42.60;;;;;;5043833;28;20385;-50
2024/02/01 08:19:07;;;;;;;2.80;1.20;;;22.80;42.70;;;;;;5045915;28;20290;-53
2024/02/01 08:21:37;;;;;;;3.28;1.42;;;22.80;42.70;;;;;;5045788;28;20298;-53
2024/02/01 08:24:06;;;;;;;2.40;1.20;;;22.80;42.80;;;;;;5041370;28;20314;-55
2024/02/01 08:26:37;;;;;;;6.40;1.83;;;22.80;43.00;;;;;;5008968;28;20231;-54
2024/02/01 08:29:06;;;;;;;5.60;1.40;;;22.80;43.00;;;;;;5048824;28;20202;-49
2024/02/01 08:31:37;;;;;;;5.38;1.60;;;22.90;43.00;;;;;;5038426;28;20265;-54
2024/02/01 08:34:07;;;;;;;8.38;1.52;;;23.00;43.30;;;;;;5045615;28;20703;-51
2024/02/01 08:36:34;;;;;;;3.15;1.30;;;23.00;43.20;;;;;;5043054;28;20219;-53
2024/02/01 08:39:01;;;;;;;5.63;1.40;;;23.00;43.20;;;;;;5049816;28;20203;-51
2024/02/01 08:41:35;;;;;;;3.20;1.52;;;23.10;43.20;;;;;;5043967;28;20212;-52
2024/02/01 08:44:02;;;;;;;6.03;2.03;;;23.10;43.10;;;;;;5049270;28;20308;-55
2024/02/01 08:46:29;;;;;;;4.53;1.85;;;23.10;43.10;;;;;;5042803;28;20234;-53
2024/02/01 08:48:58;;;;;;;5.82;1.77;;;23.10;43.20;;;;;;5047119;28;21601;-52
2024/02/01 08:51:25;;;;;;;3.60;1.60;;;23.20;43.30;;;;;;5048889;28;20716;-52
2024/02/01 08:53:52;;;;;;;7.40;1.70;;;23.30;43.30;;;;;;5049148;28;20350;-52
2024/02/01 08:56:20;;;;;;;4.80;1.65;;;23.30;43.30;;;;;;5047437;28;20310;-53
2024/02/01 08:58:47;;;;;;;3.05;1.63;;;23.30;43.40;;;;;;5043898;28;20202;-53
2024/02/01 09:01:22;;;;;;;6.72;2.00;;;23.30;43.30;;;;;;5045854;28;20442;-50
2024/02/01 09:03:49;;;;;;;3.63;1.42;;;23.30;43.40;;;;;;5049503;28;20567;-51
2024/02/01 09:06:18;;;;;;;3.47;1.80;;;23.40;43.20;;;;;;5046368;28;20251;-53
2024/02/01 09:08:46;;;;;;;6.28;1.73;;;23.40;43.20;;;;;;5047306;28;20188;-51
2024/02/01 09:11:15;;;;;;;6.07;1.90;;;23.40;43.20;;;;;;5048174;28;20218;-52
2024/02/01 09:13:44;;;;;;;4.30;1.88;;;23.40;43.20;;;;;;5047927;28;20209;-54
2024/02/01 09:16:12;;;;;;;4.32;2.10;;;23.30;43.20;;;;;;5044085;28;20270;-54
2024/02/01 09:18:39;;;;;;;4.28;1.50;;;23.30;43.10;;;;;;5047012;28;20206;-52
2024/02/01 09:21:06;;;;;;;6.78;1.48;;;23.30;43.10;;;;;;5048580;28;20294;-53
2024/02/01 09:23:34;;;;;;;4.75;1.92;;;23.30;43.10;;;;;;5048129;28;20215;-52
2024/02/01 09:26:01;;;;;;;3.53;1.60;;;23.30;43.10;;;;;;5048530;28;20251;-52
2024/02/01 09:28:28;;;;;;;5.47;1.75;;;23.30;43.10;;;;;;5047993;28;20266;-52
2024/02/01 09:30:55;;;;;;;6.07;1.90;;;23.30;43.20;;;;;;5046044;28;20228;-53
2024/02/01 09:33:27;;;;;;;3.80;1.58;;;23.30;43.10;;;;;;5052947;28;20193;-53
2024/02/01 09:35:56;;;;;;;3.65;1.75;;;23.30;43.10;;;;;;5048086;28;20227;-52
2024/02/01 09:38:23;;;;;;;5.70;1.63;;;23.30;43.00;;;;;;5047696;28;20253;-55
2024/02/01 09:40:52;;;;;;;3.13;1.60;;;23.30;43.10;;;;;;5047585;28;20302;-55
2024/02/01 09:43:20;;;;;;;6.45;2.42;;;23.30;43.20;;;;;;5046584;28;20195;-53
2024/02/01 09:45:48;;;;;;;5.50;2.03;;;23.40;43.20;;;;;;5047553;28;20227;-53
2024/02/01 09:48:17;;;;;;;4.43;1.70;;;23.40;43.20;;;;;;5046928;28;20206;-54
2024/02/01 09:50:51;;;;;;;17.77;1.63;;;23.40;43.20;;;;;;5047110;28;20242;-53
2024/02/01 09:53:22;;;;;;;3.63;1.35;;;23.50;43.20;;;;;;5048983;28;20579;-54
2024/02/01 09:55:52;;;;;;;5.03;1.67;;;23.50;43.20;;;;;;5048204;28;20219;-52
2024/02/01 09:58:20;;;;;;;5.30;1.55;;;23.60;43.20;;;;;;5048280;28;20195;-52
2024/02/01 10:00:48;;;;;;;9.38;1.90;;;23.60;43.10;;;;;;5047022;28;20280;-53
2024/02/01 10:03:22;;;;;;;7.05;1.50;;;23.60;43.00;;;;;;5048438;28;20188;-52
2024/02/01 10:05:50;;;;;;;2.80;1.40;;;23.70;43.10;;;;;;5050559;28;20226;-52
2024/02/01 10:08:18;;;;;;;4.05;1.42;;;23.70;43.20;;;;;;5047949;28;20569;-54
2024/02/01 10:10:48;;;;;;;9.73;1.30;;;23.80;43.20;;;;;;5046473;28;20226;-51
2024/02/01 10:13:18;;;;;;;5.80;1.48;;;23.80;43.30;;;;;;5048824;28;20187;-55
2024/02/01 10:15:46;;;;;;;5.22;1.55;;;23.80;43.20;;;;;;5046979;28;20208;-54
2024/02/01 10:18:19;;;;;;;4.05;1.58;;;23.80;43.30;;;;;;5044959;28;20665;-53
2024/02/01 10:20:50;;;;;;;4.63;1.70;;;23.70;43.30;;;;;;5046496;28;20222;-51
2024/02/01 10:23:19;;;;;;;3.08;1.52;;;23.70;43.40;;;;;;5045777;28;20223;-53
2024/02/01 10:25:48;;;;;;;7.18;1.65;;;23.70;43.40;;;;;;5044374;28;20260;-52
2024/02/01 10:28:18;;;;;;;4.90;1.67;;;23.70;43.40;;;;;;5046247;28;20667;-52
2024/02/01 10:30:46;;;;;;;6.25;1.90;;;23.70;43.40;;;;;;5045916;28;20224;-54
2024/02/01 10:33:14;;;;;;;5.65;1.60;;;23.70;43.40;;;;;;5040725;28;20286;-50
2024/02/01 10:35:42;;;;;;;10.15;1.90;;;23.80;43.40;;;;;;5043482;28;20684;-57
2024/02/01 10:38:14;;;;;;;4.93;1.58;;;23.70;43.20;;;;;;5045182;28;20633;-53
2024/02/01 10:41:02;;;;;;;5.18;1.30;;;23.70;43.20;;;;;;5051970;28;20286;-56
2024/02/01 10:43:34;;;;;;;7.47;2.33;;;23.70;43.20;;;;;;5050167;28;20191;-56
2024/02/01 10:46:07;;;;;;;3.55;1.20;;;23.70;43.20;;;;;;5037363;28;20880;-52
2024/02/01 10:48:43;;;;;;;3.90;1.48;;;23.70;43.20;;;;;;5049267;28;20724;-52
2024/02/01 10:51:14;;;;;;;6.28;1.65;;;23.70;43.20;;;;;;5049637;28;20243;-52
2024/02/01 10:53:45;;;;;;;5.80;1.63;;;23.70;43.30;;;;;;5047072;28;20195;-51
2024/02/01 10:56:15;;;;;;;6.80;1.48;;;23.60;43.20;;;;;;5049987;28;20247;-50
2024/02/01 10:58:47;;;;;;;3.30;1.30;;;23.70;43.20;;;;;;5044508;28;20648;-53
2024/02/01 11:01:18;;;;;;;5.50;1.55;;;23.70;43.20;;;;;;5049960;28;20507;-55
2024/02/01 11:03:50;;;;;;;6.78;1.75;;;23.70;43.20;;;;;;5050220;28;20180;-55
2024/02/01 11:06:18;;;;;;;5.32;1.65;;;23.60;43.10;;;;;;5042915;28;20712;-53
2024/02/01 11:08:47;;;;;;;5.10;1.83;;;23.70;43.10;;;;;;5049860;28;20210;-51
2024/02/01 11:11:17;;;;;;;6.25;1.52;;;23.60;43.70;;;;;;5043753;28;20232;-53
2024/02/01 11:13:49;;;;;;;6.05;1.35;;;23.60;43.10;;;;;;5049505;28;20200;-55
2024/02/01 11:16:17;;;;;;;10.88;1.48;;;23.60;43.00;;;;;;5048886;28;20223;-53
2024/02/01 11:18:54;;;;;;;9.18;1.60;;;23.60;43.00;;;;;;5048313;28;20195;-53
2024/02/01 11:21:30;;;;;;;7.90;1.75;;;23.50;42.90;;;;;;5030535;28;20725;-52
2024/02/01 11:24:06;;;;;;;5.55;1.48;;;23.50;42.70;;;;;;5041336;28;20274;-52
2024/02/01 11:26:40;;;;;;;4.90;1.05;;;23.50;43.30;;;;;;5050496;28;20227;-53
2024/02/01 11:29:10;;;;;;;6.90;1.42;;;23.40;42.50;;;;;;5049592;28;20219;-54
2024/02/01 11:31:37;;;;;;;7.20;1.40;;;23.40;42.40;;;;;;5049284;28;20216;-52
2024/02/01 11:34:07;;;;;;;4.13;1.40;;;23.50;42.40;;;;;;5047538;28;20627;-59
2024/02/01 11:36:36;;;;;;;8.57;2.00;;;23.50;42.10;;;;;;5047827;28;20258;-55
2024/02/01 11:39:04;;;;;;;7.68;1.90;;;23.50;42.00;;;;;;5049666;28;20191;-56
2024/02/01 11:41:32;;;;;;;4.55;1.92;;;23.50;41.80;;;;;;5049892;28;20397;-56
2024/02/01 11:43:59;;;;;;;6.95;2.05;;;23.50;41.70;;;;;;5049918;28;20206;-53
2024/02/01 11:46:29;;;;;;;4.80;1.92;;;23.50;41.60;;;;;;5047384;28;20310;-58
2024/02/01 11:48:56;;;;;;;8.52;1.90;;;23.50;41.60;;;;;;5047959;28;20188;-55
2024/02/01 11:51:25;;;;;;;5.65;2.00;;;23.50;41.60;;;;;;5050154;28;20305;-55
2024/02/01 11:53:52;;;;;;;5.68;1.80;;;23.40;41.50;;;;;;5049697;28;20195;-55
2024/02/01 11:56:21;;;;;;;6.53;1.73;;;23.40;41.50;;;;;;5049195;28;20752;-56
2024/02/01 11:58:49;;;;;;;4.47;1.67;;;23.40;41.50;;;;;;5049939;28;20188;-55
2024/02/01 12:01:17;;;;;;;6.20;2.10;;;23.40;41.40;;;;;;5058403;28;20238;-51
2024/02/01 12:03:51;;;;;;;7.25;2.13;;;23.30;41.30;;;;;;5054212;28;20275;-54
2024/02/01 12:06:22;;;;;;;8.77;1.90;;;23.40;41.20;;;;;;5051829;28;20225;-55
2024/02/01 12:08:50;;;;;;;5.20;1.83;;;23.30;41.10;;;;;;5050129;28;20238;-57
2024/02/01 12:11:23;;;;;;;5.85;1.73;;;23.30;41.10;;;;;;5050251;28;20196;-54
2024/02/01 12:13:51;;;;;;;6.72;1.70;;;23.30;41.10;;;;;;5051969;28;20196;-55
2024/02/01 12:16:26;;;;;;;5.90;1.75;;;23.30;41.10;;;;;;5052308;28;20196;-55
2024/02/01 12:18:55;;;;;;;6.57;2.05;;;23.20;41.00;;;;;;5052011;28;20180;-56
2024/02/01 12:21:27;;;;;;;6.22;1.60;;;23.20;41.00;;;;;;5052711;28;20230;-56
2024/02/01 12:23:56;;;;;;;5.80;1.85;;;23.20;41.00;;;;;;5050590;28;20282;-55
2024/02/01 12:26:25;;;;;;;6.53;1.98;;;23.20;41.10;;;;;;5052255;28;20219;-55
2024/02/01 12:28:53;;;;;;;5.90;2.00;;;23.20;41.10;;;;;;5050563;28;20219;-54
2024/02/01 12:31:20;;;;;;;4.85;1.77;;;23.10;41.00;;;;;;5051819;28;20572;-55
2024/02/01 12:33:47;;;;;;;8.60;2.03;;;23.10;41.00;;;;;;5051888;28;20194;-54
2024/02/01 12:36:16;;;;;;;6.78;1.80;;;23.10;41.00;;;;;;5050009;28;20716;-55
2024/02/01 12:38:44;;;;;;;6.88;2.08;;;23.10;41.00;;;;;;5052474;28;20195;-54
2024/02/01 12:41:12;;;;;;;6.57;2.00;;;23.10;41.00;;;;;;5052097;28;20655;-52
2024/02/01 12:43:39;;;;;;;9.32;1.90;;;23.10;41.00;;;;;;5058505;28;20310;-54
2024/02/01 12:46:09;;;;;;;6.07;1.50;;;23.10;40.80;;;;;;5051212;28;20215;-55
2024/02/01 12:48:37;;;;;;;6.72;2.10;;;23.20;40.80;;;;;;5051674;28;20295;-55
2024/02/01 12:51:05;;;;;;;4.85;1.70;;;23.20;40.80;;;;;;5052431;28;20278;-55
2024/02/01 12:53:34;;;;;;;8.98;1.95;;;23.20;40.70;;;;;;5050321;28;20222;-55
2024/02/01 12:56:01;;;;;;;6.22;1.98;;;23.20;40.70;;;;;;5052213;28;20283;-56
2024/02/01 12:58:28;;;;;;;4.60;1.80;;;23.20;40.70;;;;;;5051580;28;20225;-55
2024/02/01 13:00:56;;;;;;;6.05;1.77;;;23.20;40.50;;;;;;5050960;28;20677;-54
2024/02/01 13:03:22;;;;;;;6.35;2.22;;;23.30;40.50;;;;;;5052528;28;20696;-57
2024/02/01 13:05:53;;;;;;;7.47;1.70;;;23.40;40.50;;;;;;5048429;28;20215;-55
2024/02/01 13:08:20;;;;;;;4.28;1.40;;;23.30;40.50;;;;;;4999880;28;20265;-57
2024/02/01 13:10:49;;;;;;;9.40;1.80;;;23.40;40.70;;;;;;5050316;28;20231;-51
2024/02/01 13:13:16;;;;;;;14.32;1.92;;;23.40;40.80;;;;;;5042365;28;20306;-55
2024/02/01 13:15:46;;;;;;;13.45;2.17;;;23.50;41.00;;;;;;5044729;28;20195;-61
2024/02/01 13:18:13;;;;;;;5.55;1.95;;;23.50;41.10;;;;;;5037583;28;20219;-56
2024/02/01 13:20:41;;;;;;;4.63;1.50;;;23.50;41.00;;;;;;5044902;28;20198;-52
2024/02/01 13:23:10;;;;;;;6.75;2.03;;;23.50;40.90;;;;;;5047850;28;20326;-51
2024/02/01 13:25:38;;;;;;;6.10;1.65;;;23.50;40.80;;;;;;5047438;28;20218;-55
2024/02/01 13:28:08;;;;;;;7.00;1.95;;;23.60;40.80;;;;;;5047758;28;20223;-54
2024/02/01 13:30:39;;;;;;;8.23;1.80;;;23.60;40.60;;;;;;5044060;28;20210;-54
2024/02/01 13:33:07;;;;;;;7.28;2.00;;;23.60;40.50;;;;;;5047569;28;20219;-51